Clyde, Texas
Current Conditions -  °F | °C
As of 11:52 AM on Thursday 29 Jan 2015 (Local Time) from KABI Reporting Station
Clear Clear  
Wind Chill: 62°   Ceiling: Unl
Heat Index: 62°   Visibility: 10mi
Dew Point: 36°   Wind: 10mph
Humidity: 38%   Direction: 30°NNE
Pressure: 30.36"   Gusts: 24mph
Location:  32.41°N, 99.49°W
Report Text: KABI 291752Z 03009G21KT 10SM CLR 17/02 A3036 RMK AO2 SLP267 T01670022 10167 20083 51016
Loading
Personal Weather Stations






























Interactive Weather Map New forecast layout! Learn more

10-Day Weather Forecast

Advertisements
Track Severe Weather on mobile